Seal Rocks 55NM South of Valdez, AK current weather conditions

sailwx.info

Wind from 120 at 25 knots gusting 36

Wave height 2.4 meters (7 feet), 8 second period

Air temperature -1.2° C
Water temperature 5.0° C

Last reported at 2020-Jan-27 19:50 UTC.
Time now 2020-Jan-27 20:59 UTC

Location: N 60°12' W 146°48'.
View on Google Maps.

See reports from other nearby stations

  
Tides and Currents Weather Stations Pressure Air Temp Water Temp Dewpoint Dewpoint Depression Visibility Wind Speed Wind Dir Waves Ship Positions
date/time (UTC)wind fromknots sea level pressurealtimeterstation pressurevisibilityair tempwater tempwave heightnotes
2020-Jan-27 19:50 120 25 gusting 36 -1.2 5.0 2.4
2020-Jan-27 18:50 120 21 gusting 25 -0.7 4.9 2.3
2020-Jan-27 17:50 130 23 gusting 29 -0.2 4.8 2.2
2020-Jan-27 16:50 130 23 gusting 29 -0.3 4.7 1.9
2020-Jan-27 15:50 120 23 gusting 29 -0.9 4.5 1.6
2020-Jan-27 14:50 130 21 gusting 25 -0.1 4.7 1.7
2020-Jan-27 13:50 130 25 gusting 31 -0.5 4.8 1.6
2020-Jan-27 12:50 130 27 gusting 33 -0.5 4.7 1.6
2020-Jan-27 11:50 120 21 gusting 27 -0.6 4.8 1.6
2020-Jan-27 10:50 120 21 gusting 27 -0.7 4.8 1.3
2020-Jan-27 09:50 090 9 gusting 13 -2.0 4.8 1.4
2020-Jan-27 08:50 100 13 gusting 15 -1.8 4.8 1.4
2020-Jan-27 07:50 120 9 gusting 11 -2.0 4.7 1.2
2020-Jan-27 06:50 310 13 gusting 17 -2.2 4.7 1.2
2020-Jan-27 05:50 350 15 gusting 19 -2.4 4.6 1.3
2020-Jan-27 04:50 010 19 gusting 21 -2.3 4.6 1.4
2020-Jan-27 03:50 010 19 gusting 23 -2.5 4.3 1.2
2020-Jan-27 02:50 360 19 gusting 23 -2.7 4.1 1.2
2020-Jan-27 01:50 350 19 gusting 23 -2.6 5.0 1.3
2020-Jan-27 00:50 320 17 gusting 21 -2.6 5.0 1.4
2020-Jan-26 23:50 300 19 gusting 21 -2.5 5.0 1.4
2020-Jan-26 22:50 300 15 gusting 19 -2.1 5.0 1.3
2020-Jan-26 21:50 320 15 gusting 19 -1.9 4.9 1.1
2020-Jan-26 20:50 290 15 gusting 17 -2.2 4.9 1.2
2020-Jan-26 19:50 290 13 gusting 17 -2.5 5.0 1.2
2020-Jan-26 18:50 280 13 gusting 15 -2.7 4.9 1.2
2020-Jan-26 17:50 280 15 gusting 17 -2.9 4.9 1.1
2020-Jan-26 16:50 290 13 gusting 17 -3.1 4.8 1.2
2020-Jan-26 15:50 350 13 gusting 17 -3.0 4.7 1.2
2020-Jan-26 14:50 360 15 gusting 21 -2.8 4.9 1.2
2020-Jan-26 13:50 340 19 gusting 23 -2.7 4.9 1.5
2020-Jan-26 12:50 340 21 gusting 27 -2.7 4.7 1.5
2020-Jan-26 11:50 340 23 gusting 27 -2.7 4.7 1.5
2020-Jan-26 10:50 310 21 gusting 25 -1.9 4.7 1.6
2020-Jan-26 09:50 300 21 gusting 23 -1.6 4.7 1.6
2020-Jan-26 08:50 290 19 gusting 25 -1.4 5.1 1.3
2020-Jan-26 07:50 320 15 gusting 19 -0.8 5.2 1.2
2020-Jan-26 06:50 030 11 gusting 17 -0.6 5.2 1.2
2020-Jan-26 05:50 060 9 gusting 11 -0.9 5.3 1.3
2020-Jan-26 04:50 070 9 gusting 11 -0.6 5.4 1.3
2020-Jan-26 03:50 080 7 gusting 9 -0.7 5.1 1.3
2020-Jan-26 02:50 090 5 gusting 9 -0.6 5.1 1.2
2020-Jan-26 01:50 060 7 gusting 11 -0.8 5.2 1.3
2020-Jan-26 00:50 050 13 gusting 15 -0.6 5.2 1.4
2020-Jan-25 23:50 040 15 gusting 17 -0.4 5.1 1.4
2020-Jan-25 22:50 090 9 gusting 11 -0.7 5.1 1.2
2020-Jan-25 21:50 060 9 gusting 11 -0.8 5.1 1.1
2020-Jan-25 20:50 060 9 gusting 13 -0.8 5.2 1.2